| time (UTC) | temp F | wind direction | speed MPH | gust MPH | rain 1hr in | rain 24hr in | rain mn in | humidity % | barometer mb |
| 20260510183920 | 66 | 10 | 2.0 | 8.0 | 0.00 | 0.68 | 0.68 | 99 | 1017.1 |
| 20260510183418 | 65 | 49 | 3.0 | 8.0 | 0.00 | 0.68 | 0.68 | 99 | 1017.0 |
| 20260510182913 | 65 | 317 | 2.0 | 6.0 | 0.00 | 0.68 | 0.68 | 99 | 1017.1 |
| 20260510182409 | 65 | 276 | 1.0 | 5.0 | 0.00 | 0.68 | 0.68 | 99 | 1017.0 |
| 20260510181905 | 64 | 292 | 0.0 | 6.0 | 0.00 | 0.68 | 0.68 | 99 | 1016.7 |
| 20260510181403 | 63 | 33 | 4.0 | 8.0 | 0.00 | 0.68 | 0.68 | 99 | 1016.4 |
| 20260510180858 | 63 | 337 | 0.0 | 5.0 | 0.00 | 0.68 | 0.68 | 99 | 1016.1 |
| 20260510180356 | 63 | 54 | 5.0 | 8.0 | 0.00 | 0.68 | 0.68 | 99 | 1016.3 |
| 20260510175853 | 63 | 339 | 2.0 | 6.0 | 0.02 | 0.68 | 0.68 | 99 | 1016.3 |
| 20260510175348 | 63 | 313 | 2.0 | 7.0 | 0.02 | 0.68 | 0.68 | 99 | 1016.2 |
| 20260510174845 | 63 | 58 | 5.0 | 11.0 | 0.12 | 0.67 | 0.67 | 99 | 1016.3 |
| 20260510174343 | 62 | 34 | 3.0 | 10.0 | 0.17 | 0.67 | 0.67 | 99 | 1016.4 |
| 20260510173839 | 63 | 114 | 3.0 | 10.0 | 0.07 | 0.65 | 0.65 | 99 | 1016.2 |
| 20260510173335 | 63 | 18 | 7.0 | 13.0 | 0.07 | 0.64 | 0.64 | 99 | 1016.6 |
| 20260510172831 | 63 | 0 | 4.0 | 7.0 | 0.21 | 0.64 | 0.64 | 99 | 1017.2 |
| 20260510172327 | 63 | 347 | 2.0 | 9.0 | 0.24 | 0.63 | 0.63 | 99 | 1017.4 |
| 20260510171824 | 62 | 334 | 3.0 | 9.0 | 0.33 | 0.61 | 0.61 | 99 | 1017.6 |
| 20260510171321 | 62 | 328 | 3.0 | 10.0 | 0.64 | 0.58 | 0.58 | 99 | 1017.7 |
| 20260510170818 | 62 | 19 | 6.0 | 12.0 | 0.64 | 0.54 | 0.54 | 99 | 1017.6 |
| 20260510170314 | 63 | 40 | 5.0 | 15.0 | 0.78 | 0.47 | 0.47 | 97 | 1017.8 |
| 20260510165809 | 63 | 38 | 5.0 | 14.0 | 0.78 | 0.42 | 0.42 | 96 | 1017.5 |
| 20260510165307 | 66 | 6 | 6.0 | 14.0 | 0.07 | 0.31 | 0.31 | 90 | 1017.5 |
| 20260510164803 | 67 | 32 | 5.0 | 15.0 | 0.00 | 0.29 | 0.29 | 84 | 1017.2 |
| 20260510164301 | 68 | 30 | 8.0 | 18.0 | 0.00 | 0.29 | 0.29 | 82 | 1016.9 |
| 20260510163801 | 69 | 25 | 4.0 | 21.0 | 0.00 | 0.29 | 0.29 | 81 | 1016.7 |
| 20260510163257 | 75 | 71 | 4.0 | 16.0 | 0.00 | 0.29 | 0.29 | 73 | 1016.3 |
| 20260510162756 | 77 | 244 | 3.0 | 9.0 | 0.00 | 0.29 | 0.29 | 71 | 1015.8 |
| 20260510162254 | 77 | 212 | 3.0 | 6.0 | 0.00 | 0.29 | 0.29 | 70 | 1015.1 |
| 20260510161749 | 78 | 145 | 4.0 | 8.0 | 0.00 | 0.29 | 0.29 | 69 | 1014.7 |
| 20260510161245 | 79 | 206 | 4.0 | 7.0 | 0.00 | 0.29 | 0.29 | 68 | 1014.8 |
| 20260510160743 | 80 | 155 | 3.0 | 17.0 | 0.00 | 0.29 | 0.29 | 68 | 1014.4 |
| 20260510160238 | 79 | 238 | 5.0 | 7.0 | 0.00 | 0.29 | 0.29 | 69 | 1014.1 |
| 20260510155734 | 77 | 217 | 4.0 | 11.0 | 0.00 | 0.29 | 0.29 | 71 | 1013.7 |
| 20260510155230 | 76 | 180 | 5.0 | 9.0 | 0.00 | 0.29 | 0.29 | 71 | 1014.1 |
| 20260510154726 | 76 | 209 | 4.0 | 9.0 | 0.00 | 0.29 | 0.29 | 71 | 1013.8 |
| 20260510154222 | 77 | 128 | 6.0 | 12.0 | 0.00 | 0.29 | 0.29 | 68 | 1013.8 |
| 20260510153718 | 77 | 241 | 3.0 | 9.0 | 0.00 | 0.29 | 0.29 | 71 | 1013.8 |
| 20260510153214 | 77 | 208 | 3.0 | 9.0 | 0.00 | 0.29 | 0.29 | 72 | 1013.8 |
| 20260510152710 | 76 | 194 | 3.0 | 10.0 | 0.00 | 0.29 | 0.29 | 72 | 1013.8 |
| 20260510152206 | 76 | 166 | 3.0 | 10.0 | 0.00 | 0.29 | 0.29 | 73 | 1013.4 |
| 20260510151703 | 76 | 212 | 5.0 | 7.0 | 0.00 | 0.29 | 0.29 | 74 | 1013.3 |
| 20260510151202 | 76 | 222 | 3.0 | 6.0 | 0.00 | 0.29 | 0.29 | 74 | 1013.8 |
| 20260510150657 | 75 | 210 | 4.0 | 9.0 | 0.00 | 0.29 | 0.29 | 75 | 1013.6 |
| 20260510150152 | 74 | 210 | 3.0 | 10.0 | 0.00 | 0.29 | 0.29 | 77 | 1013.6 |
| 20260510145649 | 74 | 308 | 2.0 | 6.0 | 0.00 | 0.29 | 0.29 | 78 | 1013.5 |
| 20260510145146 | 73 | 197 | 2.0 | 7.0 | 0.00 | 0.29 | 0.29 | 79 | 1013.7 |
| 20260510144642 | 73 | 186 | 4.0 | 11.0 | 0.00 | 0.29 | 0.29 | 79 | 1013.3 |
| 20260510144139 | 72 | 223 | 5.0 | 6.0 | 0.00 | 0.29 | 0.29 | 81 | 1013.4 |
| 20260510143634 | 72 | 224 | 4.0 | 10.0 | 0.00 | 0.29 | 0.29 | 82 | 1013.3 |
| 20260510143131 | 71 | 164 | 3.0 | 8.0 | 0.00 | 0.29 | 0.29 | 84 | 1013.2 |
| 20260510142628 | 70 | 187 | 3.0 | 5.0 | 0.00 | 0.29 | 0.29 | 88 | 1013.5 |
| 20260510142124 | 66 | 66 | 3.0 | 9.0 | 0.00 | 0.29 | 0.29 | 99 | 1013.7 |
| 20260510141621 | 66 | 232 | 1.0 | 9.0 | 0.00 | 0.29 | 0.29 | 99 | 1014.1 |
| 20260510141120 | 66 | 202 | 4.0 | 8.0 | 0.00 | 0.29 | 0.29 | 99 | 1013.9 |
| 20260510140615 | 65 | 196 | 6.0 | 8.0 | 0.00 | 0.29 | 0.29 | 99 | 1014.2 |
| 20260510140114 | 65 | 280 | 4.0 | 9.0 | 0.00 | 0.29 | 0.29 | 99 | 1014.2 |
| 20260510135612 | 66 | 198 | 6.0 | 10.0 | 0.00 | 0.29 | 0.29 | 99 | 1014.2 |
| 20260510135106 | 65 | 185 | 4.0 | 9.0 | 0.00 | 0.29 | 0.29 | 99 | 1014.5 |
| 20260510134603 | 65 | 215 | 4.0 | 4.0 | 0.00 | 0.29 | 0.29 | 99 | 1015.0 |
| 20260510134100 | 65 | 234 | 2.0 | 5.0 | 0.00 | 0.29 | 0.29 | 99 | 1014.9 |
| 20260510133556 | 64 | 197 | 3.0 | 6.0 | 0.00 | 0.29 | 0.29 | 99 | 1014.8 |
| 20260510133052 | 64 | 144 | 2.0 | 5.0 | 0.00 | 0.29 | 0.29 | 99 | 1014.8 |
| 20260510132549 | 64 | 182 | 3.0 | 4.0 | 0.00 | 0.29 | 0.29 | 99 | 1014.8 |
| 20260510132046 | 64 | 230 | 2.0 | 3.0 | 0.00 | 0.29 | 0.29 | 99 | 1014.8 |
| 20260510131544 | 65 | 292 | 2.0 | 6.0 | 0.00 | 0.29 | 0.29 | 99 | 1014.8 |
| 20260510131041 | 65 | 244 | 1.0 | 3.0 | 0.00 | 0.29 | 0.29 | 99 | 1014.8 |
| 20260510130537 | 65 | 263 | 1.0 | 3.0 | 0.00 | 0.29 | 0.29 | 99 | 1014.6 |
| 20260510130035 | 65 | 214 | 2.0 | 2.0 | 0.00 | 0.29 | 0.29 | 99 | 1014.6 |
| 20260510125531 | 64 | 222 | 0.0 | 3.0 | 0.00 | 0.29 | 0.29 | 99 | 1014.5 |
| 20260510125027 | 64 | 315 | 1.0 | 3.0 | 0.00 | 0.29 | 0.29 | 99 | 1014.6 |
| 20260510124524 | 64 | 289 | 1.0 | 4.0 | 0.00 | 0.29 | 0.29 | 99 | 1014.5 |
| 20260510124021 | 64 | 238 | 0.0 | 2.0 | 0.00 | 0.29 | 0.29 | 99 | 1014.4 |
| 20260510123516 | 64 | 215 | 1.0 | 3.0 | 0.00 | 0.29 | 0.29 | 99 | 1014.4 |
| 20260510123012 | 64 | 284 | 1.0 | 4.0 | 0.00 | 0.29 | 0.29 | 99 | 1014.5 |
| 20260510122508 | 64 | 347 | 2.0 | 3.0 | 0.00 | 0.29 | 0.29 | 99 | 1014.6 |
| 20260510122004 | 63 | 16 | 1.0 | 3.0 | 0.00 | 0.29 | 0.29 | 99 | 1014.7 |
| 20260510121501 | 63 | 286 | 1.0 | 3.0 | 0.00 | 0.29 | 0.29 | 99 | 1014.1 |
| 20260510120959 | 63 | 35 | 1.0 | 3.0 | 0.00 | 0.29 | 0.29 | 99 | 1014.2 |
| 20260510120456 | 63 | 239 | 2.0 | 3.0 | 0.00 | 0.29 | 0.29 | 99 | 1014.1 |
| 20260510115951 | 63 | 259 | 1.0 | 2.0 | 0.00 | 0.29 | 0.29 | 99 | 1013.8 |
| 20260510115449 | 63 | 0 | 0.0 | 2.0 | 0.00 | 0.29 | 0.29 | 99 | 1014.2 |
| 20260510114945 | 63 | 267 | 1.0 | 2.0 | 0.00 | 0.29 | 0.29 | 99 | 1014.1 |
| 20260510114442 | 63 | 135 | 0.0 | 2.0 | 0.00 | 0.29 | 0.29 | 99 | 1014.2 |
| 20260510113937 | 63 | 15 | 0.0 | 2.0 | 0.00 | 0.29 | 0.29 | 99 | 1014.1 |
| 20260510113433 | 63 | 207 | 2.0 | 3.0 | 0.00 | 0.29 | 0.29 | 99 | 1014.1 |
| 20260510112931 | 63 | 280 | 1.0 | 2.0 | 0.00 | 0.29 | 0.29 | 99 | 1014.1 |
| 20260510112428 | 63 | 315 | 0.0 | 1.0 | 0.00 | 0.29 | 0.29 | 99 | 1014.1 |
| 20260510111924 | 63 | 249 | 1.0 | 3.0 | 0.00 | 0.29 | 0.29 | 99 | 1014.1 |
| 20260510111420 | 63 | 231 | 0.0 | 1.0 | 0.00 | 0.29 | 0.29 | 99 | 1013.8 |
| 20260510110916 | 63 | 297 | 0.0 | 1.0 | 0.00 | 0.29 | 0.29 | 99 | 1013.6 |
| 20260510110412 | 63 | 122 | 0.0 | 2.0 | 0.00 | 0.29 | 0.29 | 99 | 1013.7 |
| 20260510105908 | 63 | 261 | 1.0 | 3.0 | 0.00 | 0.29 | 0.29 | 99 | 1013.8 |
| 20260510105403 | 63 | 251 | 2.0 | 3.0 | 0.00 | 0.29 | 0.29 | 99 | 1013.8 |
| 20260510104859 | 63 | 269 | 0.0 | 2.0 | 0.00 | 0.29 | 0.29 | 99 | 1013.5 |
| 20260510104356 | 63 | 269 | 1.0 | 3.0 | 0.00 | 0.29 | 0.29 | 99 | 1013.4 |
| 20260510103852 | 63 | 297 | 1.0 | 6.0 | 0.00 | 0.29 | 0.29 | 99 | 1013.4 |
| 20260510103349 | 64 | 315 | 0.0 | 3.0 | 0.00 | 0.29 | 0.29 | 99 | 1013.2 |
| 20260510102845 | 64 | 35 | 1.0 | 9.0 | 0.00 | 0.29 | 0.29 | 99 | 1013.1 |
| 20260510102341 | 64 | 314 | 0.0 | 6.0 | 0.00 | 0.29 | 0.29 | 99 | 1012.7 |
| 20260510101838 | 64 | 20 | 8.0 | 8.0 | 0.00 | 0.29 | 0.29 | 99 | 1013.3 |
| 20260510101337 | 64 | 153 | 2.0 | 8.0 | 0.00 | 0.29 | 0.29 | 99 | 1013.2 |
| 20260510100832 | 64 | 46 | 3.0 | 8.0 | 0.00 | 0.29 | 0.29 | 99 | 1013.7 |
| 20260510100330 | 64 | 15 | 3.0 | 7.0 | 0.02 | 0.29 | 0.29 | 99 | 1013.3 |
| 20260510095826 | 64 | 56 | 4.0 | 14.0 | 0.07 | 0.29 | 0.29 | 98 | 1013.2 |
| 20260510095321 | 64 | 344 | 4.0 | 10.0 | 0.59 | 0.29 | 0.29 | 98 | 1012.9 |
| 20260510094821 | 64 | 25 | 8.0 | 17.0 | 1.09 | 0.28 | 0.28 | 98 | 1012.5 |
| 20260510094316 | 65 | 31 | 6.0 | 13.0 | 0.59 | 0.13 | 0.13 | 96 | 1013.9 |
| 20260510093813 | 65 | 67 | 8.0 | 15.0 | 0.52 | 0.09 | 0.09 | 95 | 1014.2 |
| 20260510093309 | 66 | 25 | 6.0 | 19.0 | 0.21 | 0.04 | 0.04 | 94 | 1013.8 |
| 20260510092805 | 67 | 358 | 12.0 | 22.0 | 0.02 | 0.00 | 0.00 | 90 | 1013.9 |
| 20260510092301 | 68 | 52 | 9.0 | 17.0 | 0.00 | 0.00 | 0.00 | 86 | 1014.0 |
| 20260510091757 | 69 | 288 | 9.0 | 15.0 | 0.00 | 0.00 | 0.00 | 84 | 1013.6 |
| 20260510091255 | 69 | 11 | 4.0 | 20.0 | 0.00 | 0.00 | 0.00 | 82 | 1013.9 |
| 20260510090751 | 70 | 3 | 6.0 | 18.0 | 0.00 | 0.00 | 0.00 | 81 | 1013.5 |
| 20260510090248 | 71 | 10 | 6.0 | 16.0 | 0.00 | 0.00 | 0.00 | 83 | 1013.7 |
| 20260510085743 | 72 | 350 | 3.0 | 12.0 | 0.00 | 0.00 | 0.00 | 88 | 1013.7 |
| 20260510085237 | 73 | 352 | 3.0 | 11.0 | 0.00 | 0.00 | 0.00 | 92 | 1013.2 |
| 20260510084734 | 74 | 313 | 3.0 | 7.0 | 0.00 | 0.00 | 0.00 | 94 | 1012.9 |
| 20260510084231 | 74 | 28 | 1.0 | 5.0 | 0.00 | 0.00 | 0.00 | 94 | 1012.6 |
| 20260510083727 | 73 | 322 | 1.0 | 7.0 | 0.00 | 0.00 | 0.00 | 95 | 1012.2 |
| 20260510083225 | 73 | 358 | 2.0 | 6.0 | 0.00 | 0.00 | 0.00 | 95 | 1012.2 |
| 20260510082720 | 73 | 337 | 1.0 | 4.0 | 0.00 | 0.00 | 0.00 | 95 | 1012.1 |
| 20260510082217 | 74 | 5 | 0.0 | 4.0 | 0.00 | 0.00 | 0.00 | 95 | 1012.2 |
| 20260510081716 | 74 | 298 | 1.0 | 5.0 | 0.00 | 0.00 | 0.00 | 95 | 1012.2 |
| 20260510081213 | 74 | 261 | 0.0 | 5.0 | 0.00 | 0.00 | 0.00 | 95 | 1012.1 |
| 20260510080707 | 73 | 277 | 2.0 | 7.0 | 0.00 | 0.00 | 0.00 | 95 | 1012.1 |
| 20260510080203 | 73 | 4 | 1.0 | 5.0 | 0.00 | 0.00 | 0.00 | 95 | 1011.6 |
| 20260510075700 | 73 | 23 | 2.0 | 3.0 | 0.00 | 0.00 | 0.00 | 95 | 1011.5 |
| 20260510075158 | 73 | 0 | 0.0 | 3.0 | 0.00 | 0.00 | 0.00 | 95 | 1011.2 |
| 20260510074655 | 73 | 310 | 1.0 | 6.0 | 0.00 | 0.00 | 0.00 | 94 | 1010.9 |
| 20260510074151 | 74 | 329 | 0.0 | 3.0 | 0.00 | 0.00 | 0.00 | 94 | 1010.9 |
| 20260510073648 | 74 | 10 | 0.0 | 6.0 | 0.00 | 0.00 | 0.00 | 94 | 1010.8 |
| 20260510073144 | 74 | 34 | 3.0 | 3.0 | 0.00 | 0.00 | 0.00 | 93 | 1010.6 |
| 20260510072640 | 74 | 9 | 2.0 | 4.0 | 0.00 | 0.00 | 0.00 | 92 | 1010.6 |
| 20260510072136 | 74 | 349 | 2.0 | 4.0 | 0.00 | 0.00 | 0.00 | 92 | 1010.5 |
| 20260510071632 | 74 | 49 | 0.0 | 4.0 | 0.00 | 0.00 | 0.00 | 92 | 1010.0 |
| 20260510071130 | 74 | 3 | 2.0 | 7.0 | 0.00 | 0.00 | 0.00 | 92 | 1009.9 |
| 20260510070627 | 75 | 32 | 1.0 | 7.0 | 0.00 | 0.00 | 0.00 | 91 | 1010.2 |
| 20260510070125 | 75 | 11 | 1.0 | 3.0 | 0.00 | 0.00 | 0.00 | 91 | 1010.9 |
| 20260510065620 | 75 | 278 | 1.0 | 5.0 | 0.00 | 0.00 | 0.00 | 91 | 1011.5 |
| 20260510065116 | 75 | 35 | 2.0 | 4.0 | 0.00 | 0.00 | 0.00 | 90 | 1011.8 |
| 20260510064613 | 75 | 8 | 1.0 | 3.0 | 0.00 | 0.00 | 0.00 | 90 | 1012.2 |
| 20260510064110 | 75 | 324 | 1.0 | 7.0 | 0.00 | 0.00 | 0.00 | 90 | 1012.0 |
| 20260510063607 | 75 | 36 | 2.0 | 5.0 | 0.00 | 0.00 | 0.00 | 89 | 1012.1 |
| 20260510063104 | 75 | 25 | 2.0 | 4.0 | 0.00 | 0.00 | 0.00 | 89 | 1012.1 |
| 20260510062559 | 75 | 357 | 2.0 | 5.0 | 0.00 | 0.00 | 0.00 | 89 | 1011.9 |
| 20260510062055 | 75 | 261 | 1.0 | 4.0 | 0.00 | 0.00 | 0.00 | 88 | 1011.7 |
| 20260510061551 | 76 | 0 | 2.0 | 3.0 | 0.00 | 0.00 | 0.00 | 87 | 1012.2 |
| 20260510061048 | 76 | 257 | 2.0 | 4.0 | 0.00 | 0.00 | 0.00 | 86 | 1011.9 |
| 20260510060545 | 76 | 319 | 2.0 | 4.0 | 0.00 | 0.00 | 0.00 | 86 | 1011.4 |
| 20260510060041 | 76 | 305 | 1.0 | 5.0 | 0.00 | 0.00 | 0.00 | 86 | 1010.6 |
| 20260510055537 | 76 | 208 | 1.0 | 4.0 | 0.00 | 0.00 | 0.00 | 86 | 1010.3 |
| 20260510055036 | 76 | 247 | 2.0 | 3.0 | 0.00 | 0.00 | 0.00 | 86 | 1010.0 |
| 20260510054531 | 76 | 102 | 1.0 | 3.0 | 0.00 | 0.00 | 0.00 | 86 | 1010.0 |
| 20260510054026 | 76 | 342 | 2.0 | 3.0 | 0.00 | 0.00 | 0.00 | 86 | 1010.0 |
| 20260510053521 | 76 | 175 | 0.0 | 4.0 | 0.00 | 0.00 | 0.00 | 86 | 1009.9 |
| 20260510053018 | 76 | 103 | 0.0 | 4.0 | 0.00 | 0.00 | 0.00 | 86 | 1010.1 |
| 20260510052514 | 76 | 242 | 0.0 | 5.0 | 0.00 | 0.00 | 0.00 | 87 | 1009.4 |
| 20260510052010 | 76 | 96 | 2.0 | 5.0 | 0.00 | 0.00 | 0.00 | 87 | 1009.2 |
| 20260510051506 | 76 | 207 | 2.0 | 4.0 | 0.00 | 0.00 | 0.00 | 87 | 1009.5 |
| 20260510051003 | 76 | 254 | 1.0 | 6.0 | 0.00 | 0.00 | 0.00 | 87 | 1009.5 |
| 20260510050500 | 76 | 281 | 2.0 | 5.0 | 0.00 | 0.00 | 0.00 | 86 | 1009.6 |
| 20260510045957 | 76 | 319 | 3.0 | 7.0 | 0.00 | 0.00 | 0.00 | 86 | 1009.5 |
| 20260510045454 | 76 | 70 | 0.0 | 4.0 | 0.00 | 0.00 | 0.00 | 85 | 1009.5 |
| 20260510044950 | 76 | 298 | 2.0 | 5.0 | 0.00 | 0.00 | 0.00 | 85 | 1009.2 |
| 20260510044447 | 76 | 313 | 1.0 | 7.0 | 0.00 | 0.00 | 0.00 | 85 | 1009.4 |
| 20260510043944 | 76 | 299 | 0.0 | 4.0 | 0.00 | 0.00 | 0.00 | 84 | 1008.8 |
| 20260510043440 | 76 | 293 | 0.0 | 7.0 | 0.00 | 0.00 | 0.00 | 83 | 1008.7 |
| 20260510042938 | 76 | 216 | 0.0 | 5.0 | 0.00 | 0.00 | 0.00 | 82 | 1008.8 |
| 20260510042434 | 76 | 315 | 0.0 | 3.0 | 0.00 | 0.00 | 0.00 | 80 | 1009.0 |
| 20260510041930 | 76 | 4 | 2.0 | 3.0 | 0.00 | 0.00 | 0.00 | 79 | 1009.2 |
| 20260510041427 | 76 | 8 | 0.0 | 4.0 | 0.00 | 0.00 | 0.00 | 78 | 1009.2 |
| 20260510040925 | 76 | 256 | 1.0 | 5.0 | 0.00 | 0.00 | 0.00 | 77 | 1009.2 |
| 20260510040422 | 76 | 218 | 0.0 | 2.0 | 0.00 | 0.00 | 0.00 | 77 | 1009.1 |
| 20260510035917 | 76 | 22 | 0.0 | 1.0 | 0.00 | 0.00 | 0.00 | 76 | 1009.2 |
| 20260510035414 | 76 | 16 | 0.0 | 3.0 | 0.00 | 0.00 | 0.00 | 76 | 1009.4 |
| 20260510034914 | 76 | 339 | 1.0 | 3.0 | 0.00 | 0.00 | 0.00 | 76 | 1009.2 |
| 20260510034413 | 76 | 343 | 0.0 | 2.0 | 0.00 | 0.00 | 0.00 | 75 | 1009.1 |
| 20260510033908 | 77 | 0 | 0.0 | 3.0 | 0.00 | 0.00 | 0.00 | 75 | 1009.2 |
| 20260510033405 | 77 | 47 | 1.0 | 5.0 | 0.00 | 0.00 | 0.00 | 74 | 1009.1 |
| 20260510032901 | 77 | 255 | 0.0 | 2.0 | 0.00 | 0.00 | 0.00 | 74 | 1009.5 |
| 20260510032358 | 77 | 109 | 1.0 | 3.0 | 0.00 | 0.00 | 0.00 | 74 | 1009.5 |
| 20260510031854 | 77 | 324 | 1.0 | 3.0 | 0.00 | 0.00 | 0.00 | 74 | 1009.2 |
| 20260510031349 | 77 | 321 | 0.0 | 4.0 | 0.00 | 0.00 | 0.00 | 74 | 1009.5 |
| 20260510030849 | 77 | 89 | 0.0 | 6.0 | 0.00 | 0.00 | 0.00 | 74 | 1009.4 |
| 20260510030346 | 77 | 109 | 0.0 | 4.0 | 0.00 | 0.00 | 0.00 | 74 | 1009.6 |
| 20260510025844 | 76 | 333 | 0.0 | 1.0 | 0.00 | 0.00 | 0.00 | 75 | 1009.2 |
| 20260510025341 | 77 | 62 | 0.0 | 2.0 | 0.00 | 0.00 | 0.00 | 75 | 1009.4 |
| 20260510024838 | 77 | 351 | 0.0 | 3.0 | 0.00 | 0.00 | 0.00 | 75 | 1009.1 |
| 20260510024334 | 77 | 100 | 0.0 | 3.0 | 0.00 | 0.00 | 0.00 | 75 | 1009.0 |
| 20260510023830 | 77 | 32 | 0.0 | 2.0 | 0.00 | 0.00 | 0.00 | 75 | 1009.4 |
| 20260510023327 | 77 | 13 | 0.0 | 3.0 | 0.00 | 0.00 | 0.00 | 74 | 1009.5 |
| 20260510022824 | 77 | 333 | 1.0 | 3.0 | 0.00 | 0.00 | 0.00 | 74 | 1009.2 |
| 20260510022323 | 77 | 76 | 0.0 | 2.0 | 0.00 | 0.00 | 0.00 | 73 | 1009.2 |
| 20260510021822 | 78 | 342 | 0.0 | 2.0 | 0.00 | 0.00 | 0.00 | 74 | 1009.1 |
| 20260510021321 | 78 | 63 | 0.0 | 2.0 | 0.00 | 0.00 | 0.00 | 74 | 1008.9 |
| 20260510020817 | 78 | 315 | 0.0 | 1.0 | 0.00 | 0.00 | 0.00 | 74 | 1009.1 |
| 20260510020312 | 78 | 349 | 0.0 | 2.0 | 0.00 | 0.00 | 0.00 | 74 | 1008.9 |
| 20260510015808 | 78 | 322 | 0.0 | 3.0 | 0.00 | 0.00 | 0.00 | 74 | 1009.0 |
| 20260510015306 | 79 | 6 | 1.0 | 3.0 | 0.00 | 0.00 | 0.00 | 73 | 1008.9 |
| 20260510014759 | 79 | 337 | 0.0 | 2.0 | 0.00 | 0.00 | 0.00 | 73 | 1009.1 |
| 20260510014256 | 79 | 310 | 0.0 | 2.0 | 0.00 | 0.00 | 0.00 | 73 | 1008.9 |
| 20260510013752 | 79 | 275 | 2.0 | 2.0 | 0.00 | 0.00 | 0.00 | 72 | 1008.7 |
| 20260510013248 | 79 | 322 | 0.0 | 2.0 | 0.00 | 0.00 | 0.00 | 71 | 1008.9 |
| 20260510012743 | 80 | 347 | 0.0 | 2.0 | 0.00 | 0.00 | 0.00 | 70 | 1008.5 |
| 20260510012238 | 80 | 346 | 0.0 | 4.0 | 0.00 | 0.00 | 0.00 | 69 | 1008.4 |
| 20260510011738 | 80 | 329 | 0.0 | 4.0 | 0.00 | 0.00 | 0.00 | 67 | 1008.3 |
| 20260510011234 | 81 | 6 | 0.0 | 3.0 | 0.00 | 0.00 | 0.00 | 65 | 1008.2 |
| 20260510010731 | 81 | 0 | 0.0 | 3.0 | 0.00 | 0.00 | 0.00 | 64 | 1008.3 |
| 20260510010227 | 82 | 24 | 0.0 | 3.0 | 0.00 | 0.00 | 0.00 | 63 | 1008.3 |
| 20260510005724 | 82 | 357 | 2.0 | 3.0 | 0.00 | 0.00 | 0.00 | 62 | 1008.2 |
| 20260510005221 | 82 | 339 | 0.0 | 3.0 | 0.00 | 0.00 | 0.00 | 61 | 1008.2 |
| 20260510004718 | 82 | 336 | 2.0 | 3.0 | 0.00 | 0.00 | 0.00 | 60 | 1008.1 |
| 20260510004217 | 83 | 336 | 0.0 | 2.0 | 0.00 | 0.00 | 0.00 | 58 | 1008.3 |
| 20260510003714 | 83 | 303 | 2.0 | 3.0 | 0.00 | 0.00 | 0.00 | 58 | 1008.2 |
| 20260510003209 | 84 | 330 | 1.0 | 5.0 | 0.00 | 0.00 | 0.00 | 57 | 1008.2 |
| 20260510002708 | 85 | 350 | 0.0 | 4.0 | 0.00 | 0.00 | 0.00 | 56 | 1007.8 |
| 20260510002206 | 85 | 268 | 1.0 | 4.0 | 0.00 | 0.00 | 0.00 | 56 | 1008.0 |
| 20260510001703 | 85 | 21 | 2.0 | 5.0 | 0.00 | 0.00 | 0.00 | 56 | 1008.2 |
| 20260510001201 | 86 | 308 | 2.0 | 5.0 | 0.00 | 0.00 | 0.00 | 54 | 1008.5 |
| 20260510000656 | 85 | 337 | 0.0 | 4.0 | 0.00 | 0.00 | 0.00 | 54 | 1008.3 |
| 20260510000154 | 86 | 29 | 1.0 | 4.0 | 0.00 | 0.00 | 0.00 | 53 | 1008.4 |
| 20260509235651 | 86 | 323 | 3.0 | 5.0 | 0.00 | 0.00 | 0.00 | 53 | 1008.5 |
| 20260509235147 | 86 | 6 | 1.0 | 5.0 | 0.00 | 0.00 | 0.00 | 51 | 1008.3 |
| 20260509234643 | 86 | 351 | 2.0 | 5.0 | 0.00 | 0.00 | 0.00 | 52 | 1008.2 |
| 20260509234140 | 86 | 343 | 3.0 | 6.0 | 0.00 | 0.00 | 0.00 | 50 | 1008.3 |
| 20260509233638 | 87 | 304 | 0.0 | 6.0 | 0.00 | 0.00 | 0.00 | 49 | 1008.3 |
| 20260509233136 | 88 | 329 | 0.0 | 9.0 | 0.00 | 0.00 | 0.00 | 46 | 1008.3 |
| 20260509232631 | 87 | 267 | 0.0 | 4.0 | 0.00 | 0.00 | 0.00 | 49 | 1008.2 |
| 20260509232128 | 87 | 340 | 1.0 | 7.0 | 0.00 | 0.00 | 0.00 | 51 | 1008.3 |
| 20260509231625 | 88 | 3 | 2.0 | 4.0 | 0.00 | 0.00 | 0.00 | 51 | 1008.4 |
| 20260509231123 | 89 | 323 | 2.0 | 5.0 | 0.00 | 0.00 | 0.00 | 50 | 1008.3 |
| 20260509230619 | 87 | 293 | 1.0 | 3.0 | 0.00 | 0.00 | 0.00 | 49 | 1008.6 |
| 20260509230117 | 87 | 319 | 2.0 | 7.0 | 0.00 | 0.00 | 0.00 | 49 | 1008.3 |
| 20260509225612 | 87 | 273 | 6.0 | 7.0 | 0.00 | 0.00 | 0.00 | 48 | 1008.3 |
| 20260509225108 | 87 | 38 | 3.0 | 5.0 | 0.00 | 0.00 | 0.00 | 52 | 1008.4 |
| 20260509224603 | 87 | 12 | 3.0 | 5.0 | 0.00 | 0.00 | 0.00 | 52 | 1008.1 |
| 20260509224101 | 87 | 9 | 1.0 | 5.0 | 0.00 | 0.00 | 0.00 | 52 | 1008.4 |
| 20260509223557 | 87 | 41 | 3.0 | 5.0 | 0.00 | 0.00 | 0.00 | 49 | 1008.2 |
| 20260509223055 | 87 | 62 | 2.0 | 5.0 | 0.00 | 0.00 | 0.00 | 49 | 1008.1 |
| 20260509222551 | 87 | 47 | 4.0 | 6.0 | 0.00 | 0.00 | 0.00 | 50 | 1008.3 |
| 20260509222047 | 87 | 26 | 3.0 | 8.0 | 0.00 | 0.00 | 0.00 | 50 | 1008.2 |
| 20260509221543 | 87 | 25 | 0.0 | 6.0 | 0.00 | 0.00 | 0.00 | 51 | 1008.0 |
| 20260509221039 | 87 | 346 | 4.0 | 8.0 | 0.00 | 0.00 | 0.00 | 51 | 1008.1 |
| 20260509220535 | 86 | 291 | 2.0 | 5.0 | 0.00 | 0.00 | 0.00 | 54 | 1008.3 |
| 20260509220032 | 87 | 3 | 3.0 | 8.0 | 0.00 | 0.00 | 0.00 | 53 | 1008.4 |
| 20260509215527 | 87 | 2 | 3.0 | 6.0 | 0.00 | 0.00 | 0.00 | 54 | 1008.3 |
| 20260509215024 | 88 | 15 | 3.0 | 5.0 | 0.00 | 0.00 | 0.00 | 54 | 1008.2 |
| 20260509214521 | 87 | 43 | 5.0 | 6.0 | 0.00 | 0.00 | 0.00 | 56 | 1008.4 |
| 20260509214018 | 86 | 275 | 1.0 | 6.0 | 0.00 | 0.00 | 0.00 | 58 | 1008.6 |
| 20260509213514 | 86 | 354 | 4.0 | 6.0 | 0.00 | 0.00 | 0.00 | 57 | 1008.5 |
| 20260509213011 | 87 | 25 | 3.0 | 3.0 | 0.00 | 0.00 | 0.00 | 56 | 1008.6 |
| 20260509212509 | 86 | 39 | 2.0 | 5.0 | 0.00 | 0.00 | 0.00 | 59 | 1008.5 |
| 20260509212005 | 87 | 48 | 3.0 | 4.0 | 0.00 | 0.00 | 0.00 | 58 | 1008.5 |
| 20260509211500 | 86 | 5 | 5.0 | 6.0 | 0.00 | 0.00 | 0.00 | 59 | 1008.8 |
| 20260509210957 | 86 | 73 | 2.0 | 7.0 | 0.00 | 0.00 | 0.00 | 59 | 1008.8 |
| 20260509210454 | 87 | 24 | 2.0 | 5.0 | 0.00 | 0.00 | 0.00 | 58 | 1008.8 |
| 20260509205950 | 87 | 205 | 1.0 | 5.0 | 0.00 | 0.00 | 0.00 | 60 | 1008.8 |
| 20260509205445 | 88 | 44 | 1.0 | 6.0 | 0.00 | 0.00 | 0.00 | 58 | 1009.0 |
| 20260509204941 | 86 | 331 | 3.0 | 6.0 | 0.00 | 0.00 | 0.00 | 59 | 1009.0 |
| 20260509204437 | 87 | 275 | 1.0 | 7.0 | 0.00 | 0.00 | 0.00 | 62 | 1008.9 |
| 20260509203934 | 88 | 334 | 3.0 | 6.0 | 0.00 | 0.00 | 0.00 | 59 | 1008.9 |
| 20260509203430 | 86 | 51 | 0.0 | 5.0 | 0.00 | 0.00 | 0.00 | 61 | 1009.2 |
| 20260509202927 | 86 | 279 | 0.0 | 8.0 | 0.00 | 0.00 | 0.00 | 61 | 1009.5 |
| 20260509202423 | 86 | 76 | 1.0 | 5.0 | 0.00 | 0.00 | 0.00 | 62 | 1009.2 |
| 20260509201919 | 85 | 25 | 3.0 | 8.0 | 0.00 | 0.00 | 0.00 | 63 | 1009.4 |
| 20260509201414 | 85 | 40 | 1.0 | 6.0 | 0.00 | 0.00 | 0.00 | 63 | 1009.2 |
| 20260509200911 | 86 | 340 | 4.0 | 8.0 | 0.00 | 0.00 | 0.00 | 64 | 1009.5 |
| 20260509200411 | 86 | 35 | 3.0 | 8.0 | 0.00 | 0.00 | 0.00 | 63 | 1009.5 |
| 20260509195908 | 86 | 11 | 1.0 | 5.0 | 0.00 | 0.00 | 0.00 | 64 | 1009.5 |
| 20260509195403 | 86 | 24 | 3.0 | 8.0 | 0.00 | 0.00 | 0.00 | 63 | 1009.5 |
| 20260509194903 | 85 | 257 | 0.0 | 6.0 | 0.00 | 0.00 | 0.00 | 67 | 1009.6 |
| 20260509194359 | 85 | 30 | 5.0 | 8.0 | 0.00 | 0.00 | 0.00 | 65 | 1009.8 |
| 20260509193856 | 86 | 45 | 5.0 | 10.0 | 0.00 | 0.00 | 0.00 | 64 | 1009.5 |
| 20260509193356 | 86 | 289 | 2.0 | 6.0 | 0.00 | 0.00 | 0.00 | 66 | 1009.7 |
| 20260509192852 | 86 | 0 | 4.0 | 7.0 | 0.00 | 0.00 | 0.00 | 64 | 1009.8 |
| 20260509192348 | 86 | 7 | 3.0 | 6.0 | 0.00 | 0.00 | 0.00 | 63 | 1009.9 |
| 20260509191844 | 85 | 277 | 3.0 | 5.0 | 0.00 | 0.00 | 0.00 | 71 | 1009.9 |
| 20260509191340 | 85 | 289 | 1.0 | 4.0 | 0.00 | 0.00 | 0.00 | 66 | 1009.8 |
| 20260509190836 | 85 | 22 | 3.0 | 6.0 | 0.00 | 0.00 | 0.00 | 65 | 1010.1 |
| 20260509190333 | 86 | 19 | 2.0 | 4.0 | 0.00 | 0.00 | 0.00 | 64 | 1010.0 |
| 20260509185830 | 86 | 332 | 2.0 | 6.0 | 0.00 | 0.00 | 0.00 | 64 | 1009.9 |
| 20260509185327 | 84 | 352 | 3.0 | 7.0 | 0.00 | 0.00 | 0.00 | 68 | 1009.9 |
| 20260509184824 | 85 | 19 | 2.0 | 7.0 | 0.00 | 0.00 | 0.00 | 66 | 1009.7 |
| 20260509184321 | 85 | 267 | 3.0 | 7.0 | 0.00 | 0.00 | 0.00 | 66 | 1009.9 |